Time;durP1;ratioP1;P1;durP2;ratioP2;P2;SDS_P1;SDS_P2;PMS_P1;PMS_P2;Temp;Humidity;BMP_temperature;BMP_pressure;BME280_temperature;BME280_humidity;BME280_pressure;Samples;Min_cycle;Max_cycle;Signal;HPM_P1;HPM_P2
2024/02/20 04:47:40;;;;;;;1.75;1.30;;;17.30;66.90;;;;;;6296495;22;20250;-89
2024/02/20 04:50:09;;;;;;;2.95;1.27;;;17.30;66.90;;;;;;6209248;22;20340;-89
2024/02/20 04:53:09;;;;;;;1.75;1.20;;;17.30;66.80;;;;;;6196430;23;20162;-87
2024/02/20 04:55:47;;;;;;;2.50;1.60;;;17.30;66.80;;;;;;6118842;23;20170;-87
2024/02/20 04:58:45;;;;;;;1.65;1.33;;;17.30;66.70;;;;;;6060956;23;20156;-89
2024/02/20 05:01:23;;;;;;;1.60;1.30;;;17.30;66.30;;;;;;6081375;23;20157;-89
2024/02/20 05:03:52;;;;;;;1.52;1.27;;;17.30;66.70;;;;;;5993891;24;20391;-89
2024/02/20 05:06:23;;;;;;;1.52;1.23;;;17.30;66.80;;;;;;5948009;24;20155;-89
2024/02/20 05:09:09;;;;;;;1.73;1.40;;;17.30;66.80;;;;;;5966390;24;20526;-89
2024/02/20 05:11:54;;;;;;;1.30;1.10;;;17.30;66.80;;;;;;5968309;24;20163;-89
2024/02/20 05:14:50;;;;;;;1.40;1.27;;;17.20;66.80;;;;;;5944116;24;20183;-89
2024/02/20 05:43:14;;;;;;;1.15;1.05;;;17.20;66.90;;;;;;6258332;22;20203;-89
2024/02/20 05:45:44;;;;;;;1.80;1.33;;;17.20;66.40;;;;;;6148302;23;20165;-89
2024/02/20 05:48:18;;;;;;;1.40;1.30;;;17.30;66.80;;;;;;6026728;23;20154;-89
2024/02/20 05:51:08;;;;;;;1.77;1.30;;;17.30;66.40;;;;;;6026260;23;20682;-88
2024/02/20 05:53:35;;;;;;;1.58;1.10;;;17.30;66.60;;;;;;6004007;23;20182;-89
2024/02/20 05:56:09;;;;;;;1.27;1.17;;;17.30;66.60;;;;;;6002782;23;20229;-89
2024/02/20 05:58:39;;;;;;;2.35;1.50;;;17.30;66.80;;;;;;6006017;23;20154;-89
2024/02/20 06:01:26;;;;;;;1.90;1.45;;;17.30;66.90;;;;;;6057578;23;20240;-89
2024/02/20 06:04:04;;;;;;;1.77;1.50;;;17.20;66.80;;;;;;6003332;23;20178;-89
2024/02/20 06:06:37;;;;;;;1.80;1.33;;;17.30;67.00;;;;;;5979271;23;20155;-89
2024/02/20 06:09:30;;;;;;;2.10;1.35;;;17.20;66.60;;;;;;5947034;24;20163;-89
2024/02/20 06:12:11;;;;;;;2.30;1.60;;;17.20;66.60;;;;;;5866135;24;20263;-89
2024/02/20 06:14:43;;;;;;;1.55;1.25;;;17.30;66.80;;;;;;5807919;24;20231;-89
2024/02/20 06:17:42;;;;;;;1.73;1.30;;;17.30;66.60;;;;;;5759787;24;20533;-89
2024/02/20 06:20:19;;;;;;;1.77;1.33;;;17.20;66.70;;;;;;5829962;24;20156;-88
2024/02/20 06:22:49;;;;;;;1.90;1.25;;;17.30;66.90;;;;;;5854766;24;20158;-89
2024/02/20 06:25:50;;;;;;;1.35;1.20;;;17.20;66.80;;;;;;5867223;24;20190;-89
2024/02/20 06:28:26;;;;;;;1.40;1.30;;;17.20;66.90;;;;;;5936645;24;20211;-89
2024/02/20 06:31:06;;;;;;;1.58;1.25;;;17.20;66.70;;;;;;5893271;24;20157;-89
2024/02/20 06:34:22;;;;;;;1.67;1.48;;;17.20;66.50;;;;;;5840926;24;20171;-90
2024/02/20 06:41:22;;;;;;;;;;;;;;;;;;;;;
2024/02/20 06:44:43;;;;;;;1.33;1.23;;;17.20;66.60;;;;;;5862387;24;20201;-89
2024/02/20 06:47:59;;;;;;;1.90;1.48;;;17.30;66.70;;;;;;5858542;24;20159;-89
2024/02/20 06:50:53;;;;;;;2.03;1.52;;;17.30;66.70;;;;;;5867034;24;20166;-89
2024/02/20 06:54:25;;;;;;;1.92;1.45;;;17.30;66.50;;;;;;5915248;24;20165;-89
2024/02/20 06:57:42;;;;;;;1.65;1.25;;;17.20;67.00;;;;;;5912566;24;20180;-90
2024/02/20 07:00:41;;;;;;;;;;;;;;;;;;;;;
2024/02/20 07:03:53;;;;;;;2.10;1.52;;;17.20;66.90;;;;;;5729030;25;20176;-90
2024/02/20 07:07:00;;;;;;;1.80;1.30;;;17.20;66.50;;;;;;5747204;25;20157;-90
2024/02/20 07:10:22;;;;;;;2.03;1.65;;;17.30;65.70;;;;;;5662085;25;20647;-90
2024/02/20 07:13:24;;;;;;;1.60;1.30;;;17.40;65.40;;;;;;5611298;25;20165;-90
2024/02/20 07:16:22;;;;;;;2.03;1.60;;;17.40;65.40;;;;;;5633065;25;20354;-89
2024/02/20 07:19:27;;;;;;;;;;;;;;;;;;;;;
2024/02/20 07:22:51;;;;;;;3.83;1.60;;;17.40;65.50;;;;;;5577334;25;20171;-90
2024/02/20 07:34:35;;;;;;;;;;;;;;;;;;;;;
2024/02/20 07:40:39;;;;;;;2.00;1.30;;;17.50;65.10;;;;;;6057195;23;20169;-89
2024/02/20 07:43:15;;;;;;;2.05;1.48;;;17.50;65.20;;;;;;5972129;24;20160;-89
2024/02/20 07:46:23;;;;;;;1.75;1.40;;;17.50;65.30;;;;;;5942633;24;20156;-89
2024/02/20 07:48:58;;;;;;;2.25;1.70;;;17.50;64.70;;;;;;5944291;24;20185;-89
2024/02/20 07:51:43;;;;;;;1.75;1.38;;;17.60;64.60;;;;;;5915821;24;20153;-89
2024/02/20 07:55:17;;;;;;;2.33;1.50;;;17.60;64.80;;;;;;5872855;24;20172;-89
2024/02/20 07:58:10;;;;;;;1.42;1.27;;;17.60;64.60;;;;;;5856502;24;20166;-90
2024/02/20 09:07:40;;;;;;;;;;;;;;;;;;;;;
2024/02/20 09:14:38;;;;;;;;;;;;;;;;;;;;;
2024/02/20 09:32:00;;;;;;;1.95;1.20;;;17.80;64.20;;;;;;5829087;24;20161;-90
2024/02/20 09:38:24;;;;;;;2.17;1.35;;;17.90;63.00;;;;;;5870942;24;20161;-89
2024/02/20 09:44:38;;;;;;;4.28;1.30;;;18.00;62.50;;;;;;5923531;24;20200;-89
2024/02/20 09:58:51;;;;;;;4.30;1.30;;;18.00;63.60;;;;;;5762020;24;20196;-90
2024/02/20 10:01:42;;;;;;;1.60;1.40;;;18.00;64.50;;;;;;5757856;24;20169;-89
2024/02/20 10:11:14;;;;;;;1.98;1.40;;;18.00;63.90;;;;;;5726098;25;20164;-89
2024/02/20 10:17:17;;;;;;;1.48;1.27;;;18.10;63.00;;;;;;5705495;25;20170;-89
2024/02/20 10:53:05;;;;;;;3.58;1.45;;;18.00;64.40;;;;;;5761015;25;20208;-90
2024/02/20 10:56:06;;;;;;;;;;;;;;;;;;;;;
2024/02/20 10:59:50;;;;;;;;;;;;;;;;;;;;;
2024/02/20 11:02:22;;;;;;;3.35;1.30;;;18.00;63.60;;;;;;5862099;24;20161;-90
2024/02/20 11:06:14;;;;;;;2.40;1.30;;;18.00;64.90;;;;;;5835733;24;20194;-90
2024/02/20 11:09:26;;;;;;;;;;;;;;;;;;;;;
2024/02/20 11:19:19;;;;;;;1.50;1.10;;;18.00;64.70;;;;;;5810661;24;20164;-90
2024/02/20 11:26:01;;;;;;;3.55;1.40;;;18.00;65.00;;;;;;5841323;24;20186;-88
2024/02/20 11:29:17;;;;;;;2.88;1.33;;;18.00;64.50;;;;;;5840851;24;20155;-89
2024/02/20 11:32:38;;;;;;;2.55;1.38;;;18.00;65.00;;;;;;5822634;24;20183;-88
2024/02/20 11:39:05;;;;;;;1.55;1.33;;;18.00;64.60;;;;;;5760649;24;20565;-91
2024/02/20 11:42:33;;;;;;;1.25;1.10;;;18.00;64.60;;;;;;5809066;24;20160;-89
2024/02/20 11:45:22;;;;;;;;;;;;;;;;;;;;;
2024/02/20 11:59:43;;;;;;;3.88;1.45;;;18.00;64.50;;;;;;5863309;24;20240;-90
2024/02/20 12:03:27;;;;;;;2.55;1.25;;;18.00;64.60;;;;;;5841482;24;20183;-89
2024/02/20 12:06:47;;;;;;;2.50;1.40;;;18.00;64.50;;;;;;5842142;24;20167;-91
2024/02/20 12:09:16;;;;;;;1.60;1.00;;;18.00;64.50;;;;;;5852138;24;20169;-90
2024/02/20 15:04:29;;;;;;;;;;;;;;;;;;;;;
2024/02/20 16:46:46;;;;;;;2.88;1.20;;;18.70;62.10;;;;;;6253179;22;20200;-89
2024/02/20 16:49:35;;;;;;;5.47;1.10;;;18.70;61.30;;;;;;6112253;23;20190;-89
2024/02/20 16:57:04;;;;;;;;;;;;;;;;;;;;;
2024/02/20 17:07:18;;;;;;;;;;;;;;;;;;;;;
2024/02/20 17:10:26;;;;;;;6.90;1.20;;;18.70;63.50;;;;;;5806323;24;20160;-88
2024/02/20 17:13:07;;;;;;;4.45;1.02;;;18.80;63.90;;;;;;5752116;25;20162;-87
2024/02/20 17:16:34;;;;;;;;;;;;;;;;;;;;;
2024/02/20 17:19:37;;;;;;;2.47;1.10;;;18.70;64.50;;;;;;5685343;25;20162;-91
2024/02/20 17:22:09;;;;;;;3.80;1.15;;;18.80;65.90;;;;;;5752685;24;20161;-90
2024/02/20 20:45:29;;;;;;;5.10;1.13;;;18.60;68.00;;;;;;6270515;22;20208;-85
2024/02/20 20:47:55;;;;;;;4.10;1.02;;;18.60;67.50;;;;;;6221868;22;20651;-85
2024/02/20 20:50:21;;;;;;;3.83;1.13;;;18.50;68.80;;;;;;6247942;22;20149;-84
2024/02/20 20:52:46;;;;;;;2.97;1.08;;;18.50;67.30;;;;;;6223872;22;20465;-84
2024/02/20 20:55:13;;;;;;;3.75;1.05;;;18.50;68.50;;;;;;6224204;22;20187;-84
2024/02/20 20:57:38;;;;;;;3.30;1.10;;;18.50;69.70;;;;;;6224355;22;20140;-85
2024/02/20 21:00:07;;;;;;;1.80;0.95;;;18.40;69.20;;;;;;6249123;22;20183;-85
2024/02/20 21:02:38;;;;;;;5.45;1.20;;;18.40;70.00;;;;;;6213436;22;20160;-84
2024/02/20 21:05:04;;;;;;;5.45;1.00;;;18.40;70.20;;;;;;6147764;22;20180;-84
2024/02/20 21:07:30;;;;;;;3.75;1.08;;;18.40;70.50;;;;;;6223798;22;20144;-84
2024/02/20 21:09:56;;;;;;;5.05;1.23;;;18.30;70.70;;;;;;6223387;22;20557;-84
2024/02/20 21:25:18;;;;;;;3.65;1.00;;;18.20;70.90;;;;;;6271843;22;20426;-84
2024/02/20 21:27:44;;;;;;;4.90;1.00;;;18.20;70.90;;;;;;6198236;22;20167;-84
2024/02/20 21:30:10;;;;;;;5.57;1.15;;;18.30;70.30;;;;;;6249052;22;20132;-84
2024/02/20 21:32:36;;;;;;;3.60;0.85;;;18.30;70.30;;;;;;6223733;22;20136;-83
2024/02/20 21:35:02;;;;;;;6.03;1.20;;;18.30;70.30;;;;;;6222981;22;20153;-84
2024/02/20 21:37:28;;;;;;;1.83;1.00;;;18.30;70.80;;;;;;6222796;22;20145;-83
2024/02/20 21:39:54;;;;;;;3.40;0.90;;;18.20;70.40;;;;;;6223431;22;20492;-84
2024/02/20 21:42:20;;;;;;;3.53;0.90;;;18.20;70.40;;;;;;6223706;22;20201;-84
2024/02/20 21:44:45;;;;;;;5.55;0.90;;;18.20;70.80;;;;;;6248208;22;20184;-84
2024/02/20 21:47:11;;;;;;;4.28;1.00;;;18.20;71.60;;;;;;6223848;22;20140;-84
2024/02/20 21:49:37;;;;;;;1.48;0.88;;;18.10;71.00;;;;;;6249079;22;20199;-84
2024/02/20 21:52:03;;;;;;;1.35;0.90;;;18.10;71.00;;;;;;6274886;22;20141;-84
2024/02/20 21:54:29;;;;;;;3.58;1.10;;;18.10;70.50;;;;;;6223773;22;20137;-84
2024/02/20 21:56:55;;;;;;;4.60;0.90;;;18.10;70.30;;;;;;6224441;22;20183;-84
2024/02/20 21:59:21;;;;;;;2.38;0.90;;;18.10;70.60;;;;;;6223873;22;20133;-84
2024/02/20 22:01:48;;;;;;;1.65;1.00;;;18.10;70.60;;;;;;6223075;22;20144;-84
2024/02/20 22:04:14;;;;;;;2.78;1.20;;;18.10;70.90;;;;;;6249366;22;20156;-84
2024/02/20 22:06:40;;;;;;;2.28;1.17;;;18.00;71.10;;;;;;6248721;22;20137;-84
2024/02/20 22:09:08;;;;;;;2.97;0.85;;;18.10;70.90;;;;;;6222605;22;20156;-84
2024/02/20 22:11:34;;;;;;;1.98;1.00;;;18.00;71.20;;;;;;6197711;22;20176;-84
2024/02/20 22:14:00;;;;;;;2.30;1.00;;;18.00;71.00;;;;;;6248745;22;20575;-84
2024/02/20 22:16:26;;;;;;;7.75;1.42;;;18.10;71.10;;;;;;6198279;22;20515;-84
2024/02/20 22:18:52;;;;;;;2.85;1.63;;;18.00;71.10;;;;;;6198238;22;20141;-85
2024/02/20 22:45:37;;;;;;;3.33;1.00;;;17.90;71.20;;;;;;6220900;22;20440;-83
2024/02/20 22:48:03;;;;;;;2.83;1.02;;;18.00;71.20;;;;;;6204064;23;20190;-83
2024/02/20 22:50:29;;;;;;;4.70;0.85;;;18.00;71.20;;;;;;6229902;22;20144;-84
2024/02/20 22:52:55;;;;;;;3.38;0.93;;;18.00;71.40;;;;;;6229936;22;20193;-84
2024/02/20 22:55:26;;;;;;;2.08;0.88;;;17.90;71.40;;;;;;6255608;22;20205;-84
2024/02/20 23:55:51;;;;;;;2.63;0.82;;;17.70;71.50;;;;;;6273683;22;20690;-85
